createdAt,value
2018-10-18T00:00:09.037Z,100567.02
2018-10-18T00:03:11.917Z,100563.52
2018-10-18T00:06:14.975Z,100564.67
2018-10-18T00:09:17.825Z,100560.84
2018-10-18T00:12:20.775Z,100560.02
2018-10-18T00:15:23.691Z,100560.84
2018-10-18T00:18:26.617Z,100567.09
2018-10-18T00:21:29.612Z,100568.52
2018-10-18T00:24:32.589Z,100567.73
2018-10-18T00:27:36.071Z,100565.67
2018-10-18T00:30:38.993Z,100569.05
2018-10-18T00:33:41.944Z,100567.00
2018-10-18T00:36:44.849Z,100571.27
2018-10-18T00:39:47.788Z,100572.92
2018-10-18T00:42:50.738Z,100575.44
2018-10-18T00:45:53.825Z,100574.96
2018-10-18T00:48:56.757Z,100575.64
2018-10-18T00:51:59.716Z,100582.02
2018-10-18T00:55:02.742Z,100586.66
2018-10-18T00:58:05.702Z,100592.60
2018-10-18T01:01:08.601Z,100593.28
2018-10-18T01:04:11.560Z,100596.83
2018-10-18T01:07:14.666Z,100600.36
2018-10-18T01:10:17.557Z,100605.48
2018-10-18T01:13:20.482Z,100612.06
2018-10-18T01:16:23.382Z,100613.87
2018-10-18T01:19:26.293Z,100612.30
2018-10-18T01:22:29.300Z,100612.45
2018-10-18T01:25:32.233Z,100612.31
2018-10-18T01:28:35.180Z,100616.55
2018-10-18T01:31:38.092Z,100622.45
2018-10-18T01:34:40.997Z,100631.39
2018-10-18T01:37:43.943Z,100626.51
2018-10-18T01:40:46.887Z,100632.73
2018-10-18T01:43:49.853Z,100633.19
2018-10-18T01:46:53.124Z,100631.34
2018-10-18T01:49:56.032Z,100636.64
2018-10-18T01:52:58.947Z,100632.45
2018-10-18T01:56:01.999Z,100631.47
2018-10-18T01:59:04.989Z,100628.84
2018-10-18T02:02:08.083Z,100629.03
2018-10-18T02:05:10.969Z,100632.03
2018-10-18T02:08:13.926Z,100635.30
2018-10-18T02:11:16.874Z,100632.57
2018-10-18T02:14:19.826Z,100630.88
2018-10-18T02:17:22.738Z,100628.08
2018-10-18T02:20:25.634Z,100628.16
2018-10-18T02:23:28.546Z,100632.86
2018-10-18T02:26:31.519Z,100640.97
2018-10-18T02:29:34.425Z,100634.06
2018-10-18T02:32:37.357Z,100633.78
2018-10-18T02:35:40.242Z,100639.17
2018-10-18T02:38:43.169Z,100637.77
2018-10-18T02:41:46.155Z,100645.09
2018-10-18T02:44:49.038Z,100644.73
2018-10-18T02:47:52.006Z,100653.11
2018-10-18T02:50:54.915Z,100653.98
2018-10-18T02:53:57.893Z,100653.98
2018-10-18T02:57:00.799Z,100654.73
2018-10-18T03:00:04.818Z,100653.06
2018-10-18T03:03:07.683Z,100654.58
2018-10-18T03:06:10.714Z,100656.47
2018-10-18T03:09:13.545Z,100655.41
2018-10-18T03:12:16.611Z,100656.66
2018-10-18T03:15:19.439Z,100651.36
2018-10-18T03:18:22.532Z,100648.04
2018-10-18T03:21:25.473Z,100647.11
2018-10-18T03:24:28.429Z,100652.22
2018-10-18T03:27:31.354Z,100648.16
2018-10-18T03:30:34.383Z,100654.33
2018-10-18T03:33:37.324Z,100657.52
2018-10-18T03:36:40.248Z,100657.34
2018-10-18T03:39:43.146Z,100659.96
2018-10-18T03:42:46.084Z,100676.55
2018-10-18T03:45:49.140Z,100667.68
2018-10-18T03:48:52.093Z,100666.84
2018-10-18T03:51:55.085Z,100668.27
2018-10-18T03:54:58.022Z,100671.55
2018-10-18T03:58:01.487Z,100673.56
2018-10-18T04:01:04.481Z,100678.48
2018-10-18T04:04:07.429Z,100676.23
2018-10-18T04:07:10.433Z,100686.33
2018-10-18T04:10:13.345Z,100681.81
2018-10-18T04:13:16.271Z,100683.61
2018-10-18T04:16:19.184Z,100678.69
2018-10-18T04:19:22.085Z,100684.46
2018-10-18T04:22:25.053Z,100676.11
2018-10-18T04:25:27.967Z,100681.63
2018-10-18T04:28:31.801Z,100676.50
2018-10-18T04:31:34.692Z,100677.66
2018-10-18T04:34:37.641Z,100676.03
2018-10-18T04:37:40.590Z,100673.32
2018-10-18T04:40:43.523Z,100682.52
2018-10-18T04:43:46.434Z,100681.81
2018-10-18T04:46:49.356Z,100683.77
2018-10-18T04:49:52.341Z,100688.47
2018-10-18T04:52:55.280Z,100688.81
2018-10-18T04:55:58.236Z,100693.91
2018-10-18T04:59:01.168Z,100698.41
2018-10-18T05:02:04.577Z,100702.50
2018-10-18T05:05:24.897Z,100695.66
2018-10-18T05:08:28.249Z,100689.05
2018-10-18T05:11:31.244Z,100692.94
2018-10-18T05:14:34.108Z,100688.69
2018-10-18T05:17:37.050Z,100683.61
2018-10-18T05:20:40.048Z,100681.52
2018-10-18T05:23:43.034Z,100681.89
2018-10-18T05:26:45.949Z,100690.61
2018-10-18T05:29:48.900Z,100699.38
2018-10-18T05:32:51.833Z,100693.41
2018-10-18T05:35:54.742Z,100703.13
2018-10-18T05:38:57.675Z,100708.89
2018-10-18T05:42:00.597Z,100707.14
2018-10-18T05:45:04.321Z,100715.98
2018-10-18T05:48:07.333Z,100714.60
2018-10-18T05:51:10.281Z,100721.58
2018-10-18T05:54:13.254Z,100724.87
2018-10-18T05:57:16.153Z,100727.03
2018-10-18T06:00:19.273Z,100735.13
2018-10-18T06:03:22.204Z,100729.33
2018-10-18T06:06:25.183Z,100730.25
2018-10-18T06:09:31.875Z,100730.12
2018-10-18T06:12:34.709Z,100739.46
2018-10-18T06:15:37.676Z,100740.84
2018-10-18T06:18:40.589Z,100745.09
2018-10-18T06:21:43.510Z,100739.59
2018-10-18T06:24:46.438Z,100738.47
2018-10-18T06:27:49.932Z,100744.27
2018-10-18T06:30:52.824Z,100749.28
2018-10-18T06:33:55.712Z,100748.02
2018-10-18T06:36:58.627Z,100748.57
2018-10-18T06:40:01.530Z,100751.66
2018-10-18T06:43:04.913Z,100756.33
2018-10-18T06:46:10.741Z,100749.45
2018-10-18T06:49:13.749Z,100758.21
2018-10-18T06:52:16.522Z,100757.00
2018-10-18T06:55:19.503Z,100752.88
2018-10-18T06:58:22.472Z,100752.49
2018-10-18T07:01:25.368Z,100757.71
2018-10-18T07:04:28.289Z,100759.25
2018-10-18T07:07:31.225Z,100757.20
2018-10-18T07:10:34.161Z,100757.71
2018-10-18T07:13:37.081Z,100762.22
2018-10-18T07:16:39.985Z,100765.67
2018-10-18T07:19:42.885Z,100766.06
2018-10-18T07:22:45.819Z,100769.94
2018-10-18T07:25:48.711Z,100768.60
2018-10-18T07:28:51.602Z,100770.90
2018-10-18T07:31:54.572Z,100769.73
2018-10-18T07:34:57.623Z,100770.06
2018-10-18T07:38:00.796Z,100769.52
2018-10-18T07:41:03.953Z,100770.53
2018-10-18T07:44:07.349Z,100770.73
2018-10-18T07:47:10.455Z,100774.11
2018-10-18T07:50:14.064Z,100778.66
2018-10-18T07:53:17.516Z,100786.09
2018-10-18T07:56:20.461Z,100786.97
2018-10-18T07:59:23.379Z,100798.23
2018-10-18T08:02:26.298Z,100792.01
2018-10-18T08:05:29.245Z,100803.25
2018-10-18T08:08:32.165Z,100802.87
2018-10-18T08:11:35.135Z,100794.78
2018-10-18T08:14:38.172Z,100797.25
2018-10-18T08:17:41.731Z,100806.25
2018-10-18T08:20:44.617Z,100809.76
2018-10-18T08:23:47.554Z,100818.98
2018-10-18T08:26:50.509Z,100819.11
2018-10-18T08:29:53.495Z,100824.33
2018-10-18T08:32:56.453Z,100815.77
2018-10-18T08:35:59.429Z,100820.98
2018-10-18T08:39:02.595Z,100826.75
2018-10-18T08:42:05.753Z,100831.63
2018-10-18T08:45:09.799Z,100831.38
2018-10-18T08:48:12.716Z,100831.14
2018-10-18T08:51:15.698Z,100837.28
2018-10-18T08:54:18.695Z,100834.36
2018-10-18T08:57:21.659Z,100837.73
2018-10-18T09:00:24.722Z,100834.02
2018-10-18T09:03:27.788Z,100838.06
2018-10-18T09:06:30.707Z,100839.45
2018-10-18T09:09:33.633Z,100840.95
2018-10-18T09:12:36.627Z,100841.45
2018-10-18T09:15:39.598Z,100842.07
2018-10-18T09:18:42.518Z,100837.85
2018-10-18T09:21:45.456Z,100845.67
2018-10-18T09:24:48.498Z,100839.86
2018-10-18T09:27:51.506Z,100841.03
2018-10-18T09:30:54.501Z,100847.17
2018-10-18T09:33:57.424Z,100850.34
2018-10-18T09:37:00.396Z,100842.11
2018-10-18T09:40:03.713Z,100849.47
2018-10-18T09:43:06.736Z,100848.84
2018-10-18T09:46:09.597Z,100835.03
2018-10-18T09:49:12.640Z,100843.06
2018-10-18T09:52:15.494Z,100842.48
2018-10-18T09:55:18.674Z,100851.51
2018-10-18T09:58:21.501Z,100852.27
2018-10-18T10:01:30.062Z,100860.02
2018-10-18T10:04:33.043Z,100856.18
2018-10-18T10:07:36.068Z,100852.92
2018-10-18T10:10:38.962Z,100861.22
2018-10-18T10:13:41.969Z,100855.28
2018-10-18T10:16:44.929Z,100852.73
2018-10-18T10:19:47.909Z,100855.16
2018-10-18T10:22:50.869Z,100859.12
2018-10-18T10:25:53.805Z,100846.46
2018-10-18T10:28:56.750Z,100847.03
2018-10-18T10:31:59.658Z,100848.66
2018-10-18T10:35:02.787Z,100848.44
2018-10-18T10:38:05.752Z,100849.86
2018-10-18T10:41:08.744Z,100849.97
2018-10-18T10:44:11.704Z,100845.67
2018-10-18T10:47:14.646Z,100846.53
2018-10-18T10:50:17.684Z,100842.47
2018-10-18T10:53:20.596Z,100850.08
2018-10-18T10:56:23.546Z,100849.38
2018-10-18T10:59:26.519Z,100840.58
2018-10-18T11:02:29.550Z,100840.87
2018-10-18T11:05:32.542Z,100841.47
2018-10-18T11:08:35.498Z,100832.16
2018-10-18T11:11:38.455Z,100834.65
2018-10-18T11:14:41.488Z,100831.64
2018-10-18T11:17:44.433Z,100834.59
2018-10-18T11:20:47.353Z,100833.69
2018-10-18T11:23:50.249Z,100832.61
2018-10-18T11:26:53.202Z,100828.68
2018-10-18T11:29:56.158Z,100819.40
2018-10-18T11:32:59.073Z,100823.45
2018-10-18T11:36:02.155Z,100822.41
2018-10-18T11:39:07.501Z,100820.52
2018-10-18T11:42:10.459Z,100822.94
2018-10-18T11:45:13.433Z,100815.15
2018-10-18T11:48:16.591Z,100814.08
2018-10-18T11:51:19.522Z,100816.80
2018-10-18T11:54:22.477Z,100810.36
2018-10-18T11:57:25.437Z,100809.78
2018-10-18T12:00:28.474Z,100813.86
2018-10-18T12:03:31.371Z,100813.28
2018-10-18T12:06:34.525Z,100814.52
2018-10-18T12:09:37.401Z,100815.96
2018-10-18T12:12:40.305Z,100814.35
2018-10-18T12:15:43.286Z,100818.14
2018-10-18T12:18:46.180Z,100814.77
2018-10-18T12:21:49.149Z,100811.26
2018-10-18T12:24:52.261Z,100809.81
2018-10-18T12:27:55.296Z,100804.59
2018-10-18T12:30:58.265Z,100805.48
2018-10-18T12:34:01.141Z,100806.61
2018-10-18T12:37:04.229Z,100807.39
2018-10-18T12:40:08.336Z,100811.45
2018-10-18T12:43:11.255Z,100808.10
2018-10-18T12:46:14.199Z,100805.16
2018-10-18T12:49:17.148Z,100803.00
2018-10-18T12:52:20.152Z,100809.73
2018-10-18T12:55:23.101Z,100811.27
2018-10-18T12:58:26.098Z,100803.78
2018-10-18T13:01:29.049Z,100814.33
2018-10-18T13:04:32.026Z,100817.83
2018-10-18T13:07:34.950Z,100820.64
2018-10-18T13:10:37.988Z,100816.03
2018-10-18T13:13:41.141Z,100815.97
2018-10-18T13:16:44.191Z,100821.84
2018-10-18T13:19:47.076Z,100822.22
2018-10-18T13:22:50.099Z,100826.76
2018-10-18T13:25:53.130Z,100821.18
2018-10-18T13:28:56.116Z,100827.89
2018-10-18T13:31:59.221Z,100826.23
2018-10-18T13:35:02.230Z,100832.94
2018-10-18T13:38:05.500Z,100829.91
2018-10-18T13:41:08.458Z,100824.55
2018-10-18T13:44:11.724Z,100829.14
2018-10-18T13:47:14.658Z,100831.00
2018-10-18T13:50:17.655Z,100824.41
2018-10-18T13:53:21.574Z,100815.94
2018-10-18T13:56:24.831Z,100818.56
2018-10-18T13:59:45.140Z,100815.77
2018-10-18T14:02:48.299Z,100813.52
2018-10-18T14:05:51.294Z,100813.98
2018-10-18T14:08:54.292Z,100817.73
2018-10-18T14:11:57.258Z,100820.69
2018-10-18T14:15:00.217Z,100813.61
2018-10-18T14:18:03.253Z,100814.81
2018-10-18T14:21:06.891Z,100809.64
2018-10-18T14:24:09.862Z,100806.80
2018-10-18T14:27:12.825Z,100810.52
2018-10-18T14:30:15.845Z,100802.95
2018-10-18T14:33:18.799Z,100805.72
2018-10-18T14:36:21.740Z,100811.59
2018-10-18T14:39:24.682Z,100811.09
2018-10-18T14:42:27.569Z,100796.08
2018-10-18T14:45:30.551Z,100799.81
2018-10-18T14:48:33.490Z,100804.98
2018-10-18T14:51:36.504Z,100804.38
2018-10-18T14:54:39.494Z,100805.11
2018-10-18T14:57:49.161Z,100804.02
2018-10-18T15:00:52.153Z,100805.17
2018-10-18T15:03:55.184Z,100797.14
2018-10-18T15:06:58.106Z,100799.86
2018-10-18T15:10:01.073Z,100794.99
2018-10-18T15:13:04.463Z,100807.42
2018-10-18T15:16:07.402Z,100811.76
2018-10-18T15:19:10.401Z,100816.33
2018-10-18T15:22:13.382Z,100815.41
2018-10-18T15:25:16.476Z,100818.36
2018-10-18T15:28:19.330Z,100820.11
2018-10-18T15:31:22.328Z,100811.86
2018-10-18T15:34:25.362Z,100812.86
2018-10-18T15:37:28.297Z,100812.78
2018-10-18T15:40:31.241Z,100814.76
2018-10-18T15:43:34.134Z,100813.66
2018-10-18T15:46:37.452Z,100823.77
2018-10-18T15:49:40.364Z,100825.86
2018-10-18T15:52:43.326Z,100830.97
2018-10-18T15:55:46.272Z,100825.17
2018-10-18T15:58:49.199Z,100824.71
2018-10-18T16:01:52.133Z,100826.20
2018-10-18T16:04:55.051Z,100822.95
2018-10-18T16:07:57.985Z,100830.73
2018-10-18T16:11:01.008Z,100827.66
2018-10-18T16:14:03.908Z,100834.12
2018-10-18T16:17:07.029Z,100844.55
2018-10-18T16:20:10.282Z,100847.63
2018-10-18T16:23:13.190Z,100848.94
2018-10-18T16:26:16.162Z,100855.18
2018-10-18T16:29:19.179Z,100861.58
2018-10-18T16:32:22.020Z,100857.77
2018-10-18T16:35:24.981Z,100856.64
2018-10-18T16:38:27.913Z,100861.16
2018-10-18T16:41:31.048Z,100861.14
2018-10-18T16:44:33.945Z,100866.42
2018-10-18T16:47:36.959Z,100864.91
2018-10-18T16:50:39.931Z,100860.74
2018-10-18T16:53:42.863Z,100863.79
2018-10-18T16:56:45.773Z,100867.59
2018-10-18T16:59:48.676Z,100878.58
2018-10-18T17:02:51.581Z,100884.30
2018-10-18T17:05:54.575Z,100881.75
2018-10-18T17:08:57.488Z,100883.66
2018-10-18T17:12:00.539Z,100884.13
2018-10-18T17:15:03.850Z,100881.58
2018-10-18T17:18:06.823Z,100887.95
2018-10-18T17:21:09.788Z,100889.62
2018-10-18T17:24:12.751Z,100886.67
2018-10-18T17:27:15.883Z,100892.19
2018-10-18T17:30:18.679Z,100896.61
2018-10-18T17:33:21.532Z,100897.70
2018-10-18T17:36:24.903Z,100902.01
2018-10-18T17:39:27.825Z,100902.75
2018-10-18T17:42:30.753Z,100902.05
2018-10-18T17:45:33.764Z,100905.25
2018-10-18T17:48:36.733Z,100911.30
2018-10-18T17:51:39.720Z,100914.55
2018-10-18T17:54:42.683Z,100914.55
2018-10-18T17:57:45.664Z,100917.73
2018-10-18T18:00:48.674Z,100928.87
2018-10-18T18:03:51.812Z,100923.38
2018-10-18T18:06:54.793Z,100924.06
2018-10-18T18:09:57.755Z,100922.77
2018-10-18T18:13:00.669Z,100925.17
2018-10-18T18:16:04.881Z,100925.86
2018-10-18T18:19:07.889Z,100928.07
2018-10-18T18:22:10.892Z,100925.33
2018-10-18T18:25:13.774Z,100929.91
2018-10-18T18:28:16.706Z,100932.77
2018-10-18T18:31:19.666Z,100930.55
2018-10-18T18:34:22.621Z,100930.82
2018-10-18T18:37:25.620Z,100932.66
2018-10-18T18:40:28.537Z,100932.37
2018-10-18T18:43:31.752Z,100935.52
2018-10-18T18:46:34.750Z,100943.11
2018-10-18T18:49:37.696Z,100944.71
2018-10-18T18:52:40.661Z,100939.10
2018-10-18T18:55:43.624Z,100944.36
2018-10-18T18:58:46.574Z,100949.28
2018-10-18T19:01:49.477Z,100952.60
2018-10-18T19:04:52.465Z,100951.50
2018-10-18T19:07:55.426Z,100949.40
2018-10-18T19:10:58.358Z,100945.66
2018-10-18T19:14:01.251Z,100950.28
2018-10-18T19:17:04.530Z,100954.98
2018-10-18T19:20:07.569Z,100959.47
2018-10-18T19:23:10.743Z,100959.13
2018-10-18T19:26:13.744Z,100965.00
2018-10-18T19:29:16.614Z,100968.75
2018-10-18T19:32:19.582Z,100973.75
2018-10-18T19:35:22.522Z,100961.80
2018-10-18T19:38:25.527Z,100962.09
2018-10-18T19:41:28.440Z,100969.28
2018-10-18T19:44:31.387Z,100973.87
2018-10-18T19:47:34.354Z,100974.89
2018-10-18T19:50:37.322Z,100981.63
2018-10-18T19:53:40.306Z,100973.91
2018-10-18T19:56:43.215Z,100983.38
2018-10-18T19:59:46.111Z,100986.52
2018-10-18T20:02:49.042Z,100985.32
2018-10-18T20:05:51.978Z,100986.45
2018-10-18T20:08:54.949Z,100990.31
2018-10-18T20:11:57.887Z,100990.21
2018-10-18T20:15:01.006Z,100988.88
2018-10-18T20:18:03.997Z,100987.29
2018-10-18T20:21:07.312Z,100991.33
2018-10-18T20:24:10.529Z,100991.75
2018-10-18T20:27:13.487Z,100996.45
2018-10-18T20:30:16.502Z,100994.45
2018-10-18T20:33:19.445Z,100993.72
2018-10-18T20:36:22.411Z,100994.25
2018-10-18T20:39:25.356Z,100992.39
2018-10-18T20:42:28.479Z,100993.58
2018-10-18T20:45:32.211Z,100991.89
2018-10-18T20:48:35.225Z,100988.77
2018-10-18T20:51:38.187Z,100985.33
2018-10-18T20:54:41.134Z,100988.91
2018-10-18T20:57:44.074Z,100990.52
2018-10-18T21:00:47.070Z,100982.87
2018-10-18T21:03:50.188Z,100984.20
2018-10-18T21:06:53.140Z,100980.09
2018-10-18T21:09:56.098Z,100980.06
2018-10-18T21:12:59.791Z,100981.67
2018-10-18T21:16:02.850Z,100980.41
2018-10-18T21:19:05.872Z,100986.03
2018-10-18T21:22:08.826Z,100986.59
2018-10-18T21:25:12.176Z,100983.50
2018-10-18T21:28:15.136Z,100983.78
2018-10-18T21:31:18.077Z,100983.19
2018-10-18T21:34:21.118Z,100975.07
2018-10-18T21:37:24.112Z,100972.09
2018-10-18T21:40:27.073Z,100972.95
2018-10-18T21:43:30.018Z,100970.92
2018-10-18T21:46:32.974Z,100970.79
2018-10-18T21:49:36.014Z,100971.84
2018-10-18T21:52:39.057Z,100975.67
2018-10-18T21:55:42.029Z,100972.27
2018-10-18T21:58:44.931Z,100964.08
2018-10-18T22:01:47.914Z,100964.36
2018-10-18T22:04:50.833Z,100972.83
2018-10-18T22:07:53.804Z,100973.88
2018-10-18T22:10:56.747Z,100969.88
2018-10-18T22:13:59.660Z,100967.13
2018-10-18T22:17:02.669Z,100968.68
2018-10-18T22:20:07.256Z,100964.29
2018-10-18T22:23:10.327Z,100956.46
2018-10-18T22:26:13.227Z,100958.00
2018-10-18T22:29:16.316Z,100963.55
2018-10-18T22:32:19.271Z,100958.95
2018-10-18T22:35:22.223Z,100949.58
2018-10-18T22:38:25.170Z,100954.59
2018-10-18T22:41:28.185Z,100950.95
2018-10-18T22:44:31.138Z,100948.06
2018-10-18T22:47:34.093Z,100946.48
2018-10-18T22:50:37.014Z,100946.48
2018-10-18T22:53:40.073Z,100941.78
2018-10-18T22:56:43.037Z,100941.44
2018-10-18T22:59:46.012Z,100946.91
2018-10-18T23:02:49.044Z,100946.66
2018-10-18T23:05:52.035Z,100945.29
2018-10-18T23:08:54.994Z,100944.55
2018-10-18T23:11:57.935Z,100944.59
2018-10-18T23:15:00.880Z,100937.22
2018-10-18T23:18:04.248Z,100941.78
2018-10-18T23:21:07.232Z,100942.59
2018-10-18T23:24:10.160Z,100938.83
2018-10-18T23:27:12.716Z,100937.64
2018-10-18T23:30:15.580Z,100936.30
2018-10-18T23:33:18.522Z,100930.96
2018-10-18T23:36:21.413Z,100941.15
2018-10-18T23:39:24.337Z,100938.66
2018-10-18T23:42:27.305Z,100939.11
2018-10-18T23:45:30.230Z,100935.64
2018-10-18T23:48:33.142Z,100935.14
2018-10-18T23:51:36.154Z,100924.54
2018-10-18T23:54:39.118Z,100925.17
2018-10-18T23:57:42.118Z,100924.54
